Time;durP1;ratioP1;P1;durP2;ratioP2;P2;SDS_P1;SDS_P2;PMS_P1;PMS_P2;Temp;Humidity;BMP_temperature;BMP_pressure;BME280_temperature;BME280_humidity;BME280_pressure;Samples;Min_cycle;Max_cycle;Signal;HPM_P1;HPM_P2
2022/05/08 00:02:14;;;;;;;9.80;4.95;;;;;;;;;;4909723;29;20032;-77
2022/05/08 00:04:54;;;;;;;11.18;4.75;;;;;;;;;;4913564;29;20033;-77
2022/05/08 00:07:26;;;;;;;8.15;4.95;;;;;;;;;;4910379;29;20049;-77
2022/05/08 00:10:00;;;;;;;11.23;5.10;;;;;;;;;;4912310;29;20028;-77
2022/05/08 00:12:26;;;;;;;14.27;5.10;;;;;;;;;;4894675;29;20012;-77
2022/05/08 00:14:52;;;;;;;11.10;4.70;;;;;;;;;;4894484;29;20032;-77
2022/05/08 00:17:29;;;;;;;10.05;4.43;;;;;;;;;;4907432;29;20052;-78
2022/05/08 00:19:56;;;;;;;9.85;4.90;;;;;;;;;;4878931;29;20013;-78
2022/05/08 00:22:28;;;;;;;8.23;4.47;;;;;;;;;;4889204;29;20390;-78
2022/05/08 00:24:55;;;;;;;9.82;4.85;;;;;;;;;;4897232;29;20036;-78
2022/05/08 00:27:23;;;;;;;9.30;4.50;;;;;;;;;;4914676;29;20032;-77
2022/05/08 00:29:49;;;;;;;7.57;4.25;;;;;;;;;;4897639;29;20139;-77
2022/05/08 00:32:15;;;;;;;7.60;4.53;;;;;;;;;;4893265;29;20463;-78
2022/05/08 00:34:41;;;;;;;8.57;4.45;;;;;;;;;;4898178;29;20044;-78
2022/05/08 00:37:08;;;;;;;9.52;4.50;;;;;;;;;;4912855;29;20063;-78
2022/05/08 00:39:40;;;;;;;11.65;4.97;;;;;;;;;;4915899;29;20008;-77
2022/05/08 00:42:08;;;;;;;8.63;4.30;;;;;;;;;;4908894;29;20043;-77
2022/05/08 00:44:35;;;;;;;10.32;4.90;;;;;;;;;;4910731;29;20041;-78
2022/05/08 00:47:02;;;;;;;11.40;4.38;;;;;;;;;;4896469;29;20116;-78
2022/05/08 00:49:29;;;;;;;7.22;4.57;;;;;;;;;;4897746;29;20028;-77
2022/05/08 00:51:59;;;;;;;11.48;4.43;;;;;;;;;;4913145;29;20463;-78
2022/05/08 00:54:41;;;;;;;9.75;5.05;;;;;;;;;;4915329;29;20045;-77
2022/05/08 00:57:07;;;;;;;8.13;4.10;;;;;;;;;;4915226;29;20045;-78
2022/05/08 00:59:34;;;;;;;9.90;4.40;;;;;;;;;;4918084;29;20043;-78
2022/05/08 01:02:10;;;;;;;6.75;3.72;;;;;;;;;;4915666;29;20061;-77
2022/05/08 01:04:46;;;;;;;8.82;4.10;;;;;;;;;;4915083;29;20071;-78
2022/05/08 01:07:27;;;;;;;9.57;4.57;;;;;;;;;;4913846;29;20047;-78
2022/05/08 01:09:54;;;;;;;7.68;4.28;;;;;;;;;;4900278;29;20033;-78
2022/05/08 01:12:47;;;;;;;7.38;4.05;;;;;;;;;;4914727;29;20028;-78
2022/05/08 01:15:18;;;;;;;9.35;4.72;;;;;;;;;;4897980;29;20032;-77
2022/05/08 01:17:44;;;;;;;6.95;4.07;;;;;;;;;;4915826;29;20024;-77
2022/05/08 01:20:25;;;;;;;8.82;4.88;;;;;;;;;;4914846;29;20020;-76
2022/05/08 01:22:51;;;;;;;9.93;4.95;;;;;;;;;;4897630;29;20064;-77
2022/05/08 01:25:17;;;;;;;9.00;3.80;;;;;;;;;;4913730;29;20031;-78
2022/05/08 01:27:43;;;;;;;9.20;4.72;;;;;;;;;;4897361;29;20028;-77
2022/05/08 01:30:11;;;;;;;8.32;4.40;;;;;;;;;;4912122;29;20048;-77
2022/05/08 01:32:38;;;;;;;7.47;4.28;;;;;;;;;;4899080;29;20041;-77
2022/05/08 01:35:05;;;;;;;7.90;4.30;;;;;;;;;;4912289;29;20044;-77
2022/05/08 01:37:35;;;;;;;7.15;3.95;;;;;;;;;;4887660;29;20051;-78
2022/05/08 01:40:07;;;;;;;9.63;4.22;;;;;;;;;;4913594;29;20013;-77
2022/05/08 01:42:33;;;;;;;10.05;5.15;;;;;;;;;;4912834;29;20055;-77
2022/05/08 01:45:01;;;;;;;12.55;4.68;;;;;;;;;;4913283;29;20041;-77
2022/05/08 01:50:13;;;;;;;8.07;4.10;;;;;;;;;;4914918;29;20064;-77
2022/05/08 01:52:39;;;;;;;9.43;4.10;;;;;;;;;;4916912;29;20024;-77
2022/05/08 01:55:08;;;;;;;10.70;4.55;;;;;;;;;;4913531;29;20036;-78
2022/05/08 01:57:43;;;;;;;11.38;3.90;;;;;;;;;;4912145;29;20039;-77
2022/05/08 02:00:09;;;;;;;14.05;4.50;;;;;;;;;;4913153;29;20478;-77
2022/05/08 02:02:38;;;;;;;9.38;3.85;;;;;;;;;;4889732;29;20060;-77
2022/05/08 02:05:05;;;;;;;8.23;4.18;;;;;;;;;;4897464;29;20029;-77
2022/05/08 02:07:32;;;;;;;10.23;4.10;;;;;;;;;;4912002;29;20057;-77
2022/05/08 02:09:58;;;;;;;7.63;4.22;;;;;;;;;;4912890;29;20028;-78
2022/05/08 02:12:24;;;;;;;9.52;4.10;;;;;;;;;;4912815;29;20028;-77
2022/05/08 02:14:50;;;;;;;9.18;4.68;;;;;;;;;;4895935;29;20033;-78
2022/05/08 02:17:17;;;;;;;8.55;4.20;;;;;;;;;;4886785;29;20048;-77
2022/05/08 02:19:51;;;;;;;7.90;4.00;;;;;;;;;;4894916;29;20035;-77
2022/05/08 02:22:27;;;;;;;9.50;4.30;;;;;;;;;;4914056;29;20029;-77
2022/05/08 02:25:07;;;;;;;8.40;4.13;;;;;;;;;;4910612;29;20043;-77
2022/05/08 02:27:39;;;;;;;9.63;4.63;;;;;;;;;;4880787;29;20025;-77
2022/05/08 02:30:13;;;;;;;6.60;3.92;;;;;;;;;;4910995;29;20052;-77
2022/05/08 02:32:39;;;;;;;9.70;4.18;;;;;;;;;;4912325;29;20040;-78
2022/05/08 02:35:07;;;;;;;9.88;4.38;;;;;;;;;;4886641;29;20061;-77
2022/05/08 02:37:33;;;;;;;7.50;4.43;;;;;;;;;;4885019;29;20041;-77
2022/05/08 02:39:59;;;;;;;6.55;3.90;;;;;;;;;;4906826;29;20100;-77
2022/05/08 02:42:27;;;;;;;8.32;4.10;;;;;;;;;;4911768;29;20459;-77
2022/05/08 02:45:05;;;;;;;7.57;3.70;;;;;;;;;;4911369;29;20029;-77
2022/05/08 02:47:35;;;;;;;9.80;3.83;;;;;;;;;;4911907;29;20021;-76
2022/05/08 02:50:01;;;;;;;9.73;4.00;;;;;;;;;;4891797;29;20043;-77
2022/05/08 02:52:28;;;;;;;9.65;4.10;;;;;;;;;;4912420;29;20041;-77
2022/05/08 02:54:54;;;;;;;9.45;4.05;;;;;;;;;;4892911;29;20053;-77
2022/05/08 03:00:11;;;;;;;10.18;3.88;;;;;;;;;;4908681;29;20944;-76
2022/05/08 03:02:46;;;;;;;8.38;4.05;;;;;;;;;;4911115;29;20048;-77
2022/05/08 03:05:12;;;;;;;5.95;3.72;;;;;;;;;;4913158;29;20013;-77
2022/05/08 03:07:38;;;;;;;8.45;4.15;;;;;;;;;;4913770;29;20055;-77
2022/05/08 03:10:06;;;;;;;9.45;3.90;;;;;;;;;;4907338;29;20122;-77
2022/05/08 03:12:34;;;;;;;9.90;4.10;;;;;;;;;;4878138;29;20024;-77
2022/05/08 03:15:02;;;;;;;9.15;4.55;;;;;;;;;;4894786;29;20648;-77
2022/05/08 03:17:31;;;;;;;8.48;3.90;;;;;;;;;;4890989;29;20065;-77
2022/05/08 03:19:59;;;;;;;5.72;3.90;;;;;;;;;;4912889;29;20036;-77
2022/05/08 03:22:29;;;;;;;9.45;4.07;;;;;;;;;;4910023;29;20048;-78
2022/05/08 03:24:55;;;;;;;5.15;3.60;;;;;;;;;;4908312;29;20016;-77
2022/05/08 03:27:21;;;;;;;13.50;4.32;;;;;;;;;;4909487;29;20035;-77
2022/05/08 03:29:47;;;;;;;9.05;3.70;;;;;;;;;;4911144;29;20052;-77
2022/05/08 03:32:13;;;;;;;7.50;3.97;;;;;;;;;;4891554;29;20009;-77
2022/05/08 03:34:40;;;;;;;8.57;3.75;;;;;;;;;;4911424;29;20055;-77
2022/05/08 03:37:06;;;;;;;9.95;4.20;;;;;;;;;;4894789;29;20071;-77
2022/05/08 03:39:32;;;;;;;10.68;4.53;;;;;;;;;;4880934;29;20029;-77
2022/05/08 03:42:02;;;;;;;10.27;4.20;;;;;;;;;;4908248;29;20033;-77
2022/05/08 03:44:29;;;;;;;10.32;4.50;;;;;;;;;;4909554;29;20005;-77
2022/05/08 03:46:57;;;;;;;10.32;4.18;;;;;;;;;;4901394;29;20424;-77
2022/05/08 03:49:24;;;;;;;7.82;3.70;;;;;;;;;;4889695;29;20064;-77
2022/05/08 03:51:53;;;;;;;10.63;4.15;;;;;;;;;;4901374;29;20025;-77
2022/05/08 03:54:19;;;;;;;11.02;3.97;;;;;;;;;;4908885;29;20043;-77
2022/05/08 03:56:49;;;;;;;6.30;4.40;;;;;;;;;;4911681;29;20029;-77
2022/05/08 03:59:16;;;;;;;11.27;4.57;;;;;;;;;;4911388;29;20068;-77
2022/05/08 04:01:43;;;;;;;11.05;4.53;;;;;;;;;;4912473;29;20017;-77
2022/05/08 04:04:09;;;;;;;8.23;4.43;;;;;;;;;;4895803;29;20048;-77
2022/05/08 04:06:35;;;;;;;12.82;4.40;;;;;;;;;;4895826;29;20056;-77
2022/05/08 04:09:02;;;;;;;9.13;4.13;;;;;;;;;;4892470;29;20049;-77
2022/05/08 04:11:29;;;;;;;9.32;3.90;;;;;;;;;;4909857;29;20033;-77
2022/05/08 04:13:58;;;;;;;7.28;3.90;;;;;;;;;;4886965;29;20031;-77
2022/05/08 04:16:30;;;;;;;12.30;4.20;;;;;;;;;;4910068;29;20025;-77
2022/05/08 04:19:00;;;;;;;9.30;4.03;;;;;;;;;;4903120;29;20039;-77
2022/05/08 04:21:26;;;;;;;28.45;5.35;;;;;;;;;;4886932;29;20051;-77
2022/05/08 04:26:37;;;;;;;17.90;4.60;;;;;;;;;;4902295;29;20032;-78
2022/05/08 04:29:10;;;;;;;9.77;4.07;;;;;;;;;;4909736;29;20045;-77
2022/05/08 04:31:39;;;;;;;;;;;;;;;;;;4896584;29;20031;-77
2022/05/08 04:34:05;;;;;;;8.50;4.05;;;;;;;;;;4909648;29;19916;-77
2022/05/08 04:36:52;;;;;;;8.85;5.13;;;;;;;;;;4891799;29;20020;-77
2022/05/08 04:39:21;;;;;;;7.88;3.72;;;;;;;;;;4871818;29;20060;-78
2022/05/08 04:41:48;;;;;;;8.40;4.28;;;;;;;;;;4857868;29;20033;-77
2022/05/08 04:44:17;;;;;;;9.45;3.75;;;;;;;;;;4871394;29;20042;-77
2022/05/08 04:46:44;;;;;;;10.02;4.28;;;;;;;;;;4868945;29;20040;-77
2022/05/08 04:49:12;;;;;;;6.15;3.63;;;;;;;;;;4857193;29;20056;-77
2022/05/08 04:51:40;;;;;;;8.50;4.88;;;;;;;;;;4863499;29;20383;-77
2022/05/08 05:06:45;;;;;;;8.43;4.07;;;;;;;;;;5066416;27;20410;-88
2022/05/08 05:09:11;;;;;;;10.48;4.40;;;;;;;;;;5061827;28;20036;-88
2022/05/08 05:11:37;;;;;;;9.63;4.47;;;;;;;;;;5057494;28;20047;-84
2022/05/08 05:14:03;;;;;;;9.45;4.30;;;;;;;;;;5062390;28;20025;-82
2022/05/08 05:16:29;;;;;;;8.25;3.88;;;;;;;;;;5058847;28;20036;-83
2022/05/08 05:18:55;;;;;;;8.68;4.35;;;;;;;;;;5050670;28;20021;-91
2022/05/08 05:21:22;;;;;;;14.48;4.68;;;;;;;;;;5070112;28;20025;-89
2022/05/08 05:23:48;;;;;;;9.40;4.30;;;;;;;;;;5087935;28;20059;-86
2022/05/08 05:26:14;;;;;;;11.02;4.22;;;;;;;;;;5053963;28;20098;-84
2022/05/08 05:28:44;;;;;;;6.57;4.10;;;;;;;;;;5062341;28;20040;-77
2022/05/08 05:31:12;;;;;;;7.60;3.78;;;;;;;;;;5057875;28;20031;-78
2022/05/08 05:33:38;;;;;;;9.23;4.60;;;;;;;;;;5054060;28;20035;-86
2022/05/08 05:36:05;;;;;;;11.68;3.97;;;;;;;;;;5059154;28;20139;-78
2022/05/08 05:38:31;;;;;;;11.50;4.32;;;;;;;;;;5059101;28;20048;-91
2022/05/08 05:40:59;;;;;;;6.47;4.47;;;;;;;;;;5053634;28;20040;-76
2022/05/08 05:43:26;;;;;;;8.15;4.60;;;;;;;;;;5050346;28;20030;-79
2022/05/08 05:47:49;;;;;;;7.70;4.20;;;;;;;;;;5060292;28;20079;-81
2022/05/08 05:48:38;;;;;;;11.27;4.55;;;;;;;;;;5052840;28;20108;-83
2022/05/08 05:51:07;;;;;;;9.23;4.28;;;;;;;;;;5050127;28;20033;-77
2022/05/08 05:53:35;;;;;;;9.23;3.97;;;;;;;;;;5052905;28;20091;-76
2022/05/08 05:56:01;;;;;;;14.55;4.32;;;;;;;;;;5049984;28;20397;-76
2022/05/08 05:58:29;;;;;;;7.70;3.90;;;;;;;;;;5059242;28;20035;-77
2022/05/08 06:00:55;;;;;;;11.32;4.30;;;;;;;;;;5053231;28;20025;-85
2022/05/08 06:03:21;;;;;;;7.28;4.40;;;;;;;;;;5050998;28;20037;-85
2022/05/08 06:05:47;;;;;;;9.13;4.40;;;;;;;;;;5051099;28;20045;-84
2022/05/08 06:08:16;;;;;;;6.75;4.43;;;;;;;;;;5040011;28;20041;-81
2022/05/08 06:10:42;;;;;;;9.88;4.20;;;;;;;;;;5047314;28;20174;-80
2022/05/08 06:13:08;;;;;;;9.02;4.03;;;;;;;;;;5038512;28;20128;-75
2022/05/08 06:15:34;;;;;;;9.40;4.07;;;;;;;;;;5046811;28;20115;-79
2022/05/08 06:18:00;;;;;;;12.95;4.20;;;;;;;;;;5039883;28;20033;-79
2022/05/08 06:20:26;;;;;;;9.57;4.20;;;;;;;;;;5041539;28;20398;-78
2022/05/08 06:22:52;;;;;;;7.55;4.32;;;;;;;;;;5036588;28;20034;-78
2022/05/08 06:25:18;;;;;;;8.20;4.00;;;;;;;;;;5039394;28;20041;-80
2022/05/08 06:27:44;;;;;;;8.50;4.03;;;;;;;;;;5042656;28;20021;-79
2022/05/08 06:30:11;;;;;;;7.43;3.75;;;;;;;;;;5048367;28;20104;-79
2022/05/08 06:32:37;;;;;;;10.60;4.30;;;;;;;;;;5044642;28;20543;-79
2022/05/08 06:35:03;;;;;;;10.60;4.18;;;;;;;;;;5042728;28;20114;-78
2022/05/08 06:37:29;;;;;;;8.23;4.20;;;;;;;;;;5041236;28;20029;-80
2022/05/08 06:39:55;;;;;;;11.02;4.30;;;;;;;;;;5035197;28;20049;-77
2022/05/08 06:42:21;;;;;;;9.95;4.88;;;;;;;;;;5036416;28;20025;-79
2022/05/08 06:44:47;;;;;;;9.52;4.18;;;;;;;;;;5044214;28;20078;-80
2022/05/08 06:47:13;;;;;;;11.27;4.35;;;;;;;;;;5039892;28;20075;-85
2022/05/08 06:49:39;;;;;;;46.47;5.40;;;;;;;;;;5040603;28;20028;-80
2022/05/08 06:52:06;;;;;;;6.55;4.20;;;;;;;;;;5038639;28;20036;-82
2022/05/08 06:54:32;;;;;;;10.82;4.38;;;;;;;;;;5045434;28;20048;-80
2022/05/08 06:56:59;;;;;;;5.68;3.70;;;;;;;;;;5033383;28;20021;-83
2022/05/08 07:02:11;;;;;;;7.68;4.28;;;;;;;;;;5040375;28;20074;-79
2022/05/08 07:04:41;;;;;;;19.48;5.25;;;;;;;;;;5041807;28;20053;-79
2022/05/08 07:07:07;;;;;;;16.75;4.95;;;;;;;;;;5038070;28;20525;-77
2022/05/08 07:09:33;;;;;;;11.00;4.35;;;;;;;;;;5040797;28;20021;-78
2022/05/08 07:11:59;;;;;;;8.77;4.30;;;;;;;;;;5038911;28;20056;-79
2022/05/08 07:14:27;;;;;;;10.52;4.15;;;;;;;;;;5049310;28;20028;-78
2022/05/08 07:16:56;;;;;;;9.30;4.20;;;;;;;;;;5039883;28;20108;-83
2022/05/08 07:19:22;;;;;;;14.65;4.60;;;;;;;;;;5039601;28;20025;-78
2022/05/08 07:21:48;;;;;;;9.50;4.50;;;;;;;;;;5042521;28;20098;-80
2022/05/08 07:24:14;;;;;;;14.18;4.68;;;;;;;;;;5046107;28;20056;-82
2022/05/08 07:26:41;;;;;;;11.23;4.35;;;;;;;;;;5037162;28;20033;-78
2022/05/08 07:29:07;;;;;;;10.25;4.55;;;;;;;;;;5040022;28;20022;-82
2022/05/08 07:31:34;;;;;;;11.30;4.15;;;;;;;;;;5041370;28;20112;-81
2022/05/08 07:36:46;;;;;;;10.07;4.25;;;;;;;;;;5035243;28;20040;-77
2022/05/08 07:39:13;;;;;;;9.43;4.43;;;;;;;;;;5040098;28;20148;-78
2022/05/08 07:41:41;;;;;;;9.45;4.50;;;;;;;;;;5042034;28;20026;-75
2022/05/08 07:44:07;;;;;;;9.45;4.38;;;;;;;;;;5040949;28;20155;-76
2022/05/08 07:46:33;;;;;;;9.40;4.25;;;;;;;;;;5043822;28;20040;-77
2022/05/08 07:48:59;;;;;;;8.98;4.40;;;;;;;;;;5046838;28;20025;-76
2022/05/08 07:51:25;;;;;;;6.80;4.22;;;;;;;;;;5042591;28;20376;-76
2022/05/08 07:53:51;;;;;;;11.43;4.15;;;;;;;;;;5036226;28;20352;-75
2022/05/08 07:56:17;;;;;;;9.90;4.57;;;;;;;;;;5036575;28;20037;-83
2022/05/08 07:58:43;;;;;;;8.25;4.28;;;;;;;;;;5045391;28;20101;-76
2022/05/08 08:01:10;;;;;;;9.02;4.10;;;;;;;;;;5043231;28;20087;-76
2022/05/08 08:03:36;;;;;;;8.20;4.35;;;;;;;;;;5040145;28;20021;-75
2022/05/08 08:06:02;;;;;;;6.78;3.92;;;;;;;;;;5038529;28;20050;-82
2022/05/08 08:08:28;;;;;;;8.70;4.35;;;;;;;;;;5041383;28;20025;-74
2022/05/08 08:10:56;;;;;;;9.10;3.83;;;;;;;;;;5041541;28;20029;-75
2022/05/08 08:13:28;;;;;;;15.30;5.28;;;;;;;;;;5043968;28;20381;-76
2022/05/08 08:15:55;;;;;;;7.35;4.38;;;;;;;;;;5034589;28;20471;-76
2022/05/08 08:18:21;;;;;;;8.52;4.13;;;;;;;;;;5044188;28;20033;-77
2022/05/08 08:20:47;;;;;;;9.07;4.38;;;;;;;;;;5041741;28;20037;-88
2022/05/08 08:23:13;;;;;;;20.50;4.80;;;;;;;;;;5045092;28;20059;-92
2022/05/08 08:25:39;;;;;;;9.90;4.20;;;;;;;;;;5045542;28;20029;-89
2022/05/08 08:28:06;;;;;;;9.50;4.32;;;;;;;;;;5035478;28;20022;-79
2022/05/08 08:30:32;;;;;;;15.15;4.93;;;;;;;;;;5042062;28;20056;-77
2022/05/08 08:32:58;;;;;;;8.55;4.43;;;;;;;;;;5038361;28;20592;-77
2022/05/08 08:35:25;;;;;;;13.88;4.63;;;;;;;;;;5039533;28;20033;-88
2022/05/08 08:37:51;;;;;;;8.30;3.70;;;;;;;;;;5035703;28;20025;-86
2022/05/08 08:40:17;;;;;;;16.67;4.47;;;;;;;;;;5033473;28;20032;-79
2022/05/08 08:42:43;;;;;;;10.23;4.80;;;;;;;;;;5041710;28;20020;-79
2022/05/08 08:48:06;;;;;;;12.18;4.22;;;;;;;;;;5038169;28;20044;-75
2022/05/08 08:50:32;;;;;;;10.82;4.40;;;;;;;;;;5044860;28;20043;-75
2022/05/08 08:52:59;;;;;;;9.25;4.22;;;;;;;;;;5039478;28;20017;-76
2022/05/08 08:55:25;;;;;;;11.02;4.95;;;;;;;;;;5042692;28;20140;-75
2022/05/08 08:57:51;;;;;;;24.40;5.10;;;;;;;;;;5032468;28;20027;-76
2022/05/08 09:00:18;;;;;;;10.55;4.18;;;;;;;;;;5041643;28;20836;-79
2022/05/08 09:02:45;;;;;;;11.70;4.07;;;;;;;;;;5038241;28;20014;-78
2022/05/08 09:05:11;;;;;;;8.80;4.50;;;;;;;;;;5041916;28;20053;-74
2022/05/08 09:07:41;;;;;;;10.63;4.20;;;;;;;;;;5042129;28;20036;-74
2022/05/08 09:10:07;;;;;;;8.50;4.13;;;;;;;;;;5042237;28;20021;-78
2022/05/08 09:12:37;;;;;;;11.02;4.40;;;;;;;;;;5041798;28;20466;-75
2022/05/08 09:15:18;;;;;;;7.55;4.20;;;;;;;;;;5046291;28;20031;-75
2022/05/08 09:17:45;;;;;;;17.00;4.25;;;;;;;;;;5047558;28;20025;-74
2022/05/08 09:20:26;;;;;;;22.48;4.93;;;;;;;;;;5039060;28;20446;-77
2022/05/08 09:23:10;;;;;;;10.57;4.35;;;;;;;;;;5035758;28;20474;-79
2022/05/08 09:25:56;;;;;;;14.98;5.00;;;;;;;;;;5037152;28;20391;-75
2022/05/08 09:28:29;;;;;;;8.75;4.22;;;;;;;;;;5033523;28;20040;-79
2022/05/08 09:31:06;;;;;;;5.40;3.70;;;;;;;;;;5041701;28;20482;-79
2022/05/08 09:33:42;;;;;;;14.25;4.43;;;;;;;;;;5042497;28;20028;-76
2022/05/08 09:36:10;;;;;;;6.38;4.03;;;;;;;;;;5039221;28;20056;-78
2022/05/08 09:38:44;;;;;;;9.55;4.30;;;;;;;;;;5038939;28;20031;-84
2022/05/08 09:41:10;;;;;;;13.68;4.68;;;;;;;;;;5041000;28;20025;-81
2022/05/08 09:43:36;;;;;;;7.43;4.15;;;;;;;;;;5044894;28;20032;-81
2022/05/08 09:46:03;;;;;;;14.88;4.63;;;;;;;;;;5039579;28;20040;-77
2022/05/08 09:48:30;;;;;;;11.07;3.72;;;;;;;;;;5039047;28;20029;-77
2022/05/08 09:51:00;;;;;;;12.10;4.53;;;;;;;;;;5041276;28;20044;-79
2022/05/08 09:53:26;;;;;;;10.90;4.80;;;;;;;;;;5046612;28;20021;-79
2022/05/08 09:55:53;;;;;;;12.98;7.28;;;;;;;;;;5042269;28;20025;-76
2022/05/08 09:58:20;;;;;;;13.88;6.78;;;;;;;;;;5037702;28;20032;-83
2022/05/08 10:00:46;;;;;;;7.47;4.35;;;;;;;;;;5043586;28;20037;-78
2022/05/08 10:03:14;;;;;;;8.43;4.00;;;;;;;;;;5045678;28;20029;-76
2022/05/08 10:05:41;;;;;;;12.20;4.88;;;;;;;;;;5044008;28;20092;-79
2022/05/08 10:08:08;;;;;;;16.60;8.85;;;;;;;;;;5039113;28;20017;-83
2022/05/08 10:13:55;;;;;;;12.00;4.90;;;;;;;;;;5046399;28;20136;-85
2022/05/08 10:16:40;;;;;;;12.60;4.15;;;;;;;;;;5038992;28;20565;-80
2022/05/08 10:19:21;;;;;;;80.63;8.38;;;;;;;;;;5041825;28;20043;-88
2022/05/08 10:22:02;;;;;;;23.23;14.05;;;;;;;;;;5042702;28;20034;-81
2022/05/08 10:24:34;;;;;;;10.55;4.45;;;;;;;;;;5038034;28;20056;-74
2022/05/08 10:27:20;;;;;;;24.88;8.73;;;;;;;;;;5043818;28;20029;-75
2022/05/08 10:29:50;;;;;;;12.68;4.20;;;;;;;;;;5041502;28;20068;-74
2022/05/08 10:32:31;;;;;;;12.38;4.22;;;;;;;;;;5039704;28;20479;-74
2022/05/08 10:35:15;;;;;;;10.98;4.25;;;;;;;;;;5044354;28;20041;-74
2022/05/08 10:37:49;;;;;;;17.80;5.20;;;;;;;;;;5040151;28;20059;-75
2022/05/08 10:40:25;;;;;;;10.27;4.20;;;;;;;;;;5038567;28;20025;-74
2022/05/08 10:43:19;;;;;;;10.40;4.13;;;;;;;;;;5042923;28;20032;-74
2022/05/08 10:45:47;;;;;;;;;;;;;;;;;;5039329;28;20053;-75
2022/05/08 10:48:14;;;;;;;10.30;4.93;;;;;;;;;;5046025;28;19919;-75
2022/05/08 10:50:46;;;;;;;8.40;4.25;;;;;;;;;;5048292;28;20031;-75
2022/05/08 10:53:20;;;;;;;7.00;3.63;;;;;;;;;;5046394;28;20043;-75
2022/05/08 10:55:46;;;;;;;9.68;4.07;;;;;;;;;;5044350;28;20121;-75
2022/05/08 10:58:12;;;;;;;6.63;3.80;;;;;;;;;;5040840;28;20447;-75
2022/05/08 11:00:38;;;;;;;8.80;4.05;;;;;;;;;;5049115;28;20440;-75
2022/05/08 11:03:04;;;;;;;10.75;3.90;;;;;;;;;;5039571;28;20027;-74
2022/05/08 11:05:36;;;;;;;7.70;3.97;;;;;;;;;;5039974;28;20045;-74
2022/05/08 11:08:02;;;;;;;13.02;5.00;;;;;;;;;;5046458;28;20439;-74
2022/05/08 11:10:30;;;;;;;9.15;3.92;;;;;;;;;;5040095;28;20042;-74
2022/05/08 11:12:59;;;;;;;7.05;4.07;;;;;;;;;;5040544;28;20043;-74
2022/05/08 11:15:28;;;;;;;8.07;3.92;;;;;;;;;;5042133;28;20166;-75
2022/05/08 11:18:07;;;;;;;6.93;3.70;;;;;;;;;;5035091;28;20036;-75
2022/05/08 11:20:33;;;;;;;9.82;5.22;;;;;;;;;;5039718;28;20459;-74
2022/05/08 11:23:00;;;;;;;8.10;4.47;;;;;;;;;;5036871;28;20086;-74
2022/05/08 11:25:26;;;;;;;7.68;4.15;;;;;;;;;;5042861;28;20036;-74
2022/05/08 11:27:53;;;;;;;8.27;4.80;;;;;;;;;;5042395;28;20021;-74
2022/05/08 11:30:35;;;;;;;9.60;4.78;;;;;;;;;;5044990;28;20064;-75
2022/05/08 11:36:08;;;;;;;16.00;5.55;;;;;;;;;;5038370;28;20064;-74
2022/05/08 11:39:13;;;;;;;15.25;8.52;;;;;;;;;;5044232;28;20028;-75
2022/05/08 11:41:41;;;;;;;9.02;4.18;;;;;;;;;;5042065;28;20029;-74
2022/05/08 11:44:20;;;;;;;14.57;6.10;;;;;;;;;;5044720;28;20044;-74
2022/05/08 11:46:50;;;;;;;9.43;4.53;;;;;;;;;;5045172;28;20048;-75
2022/05/08 11:49:18;;;;;;;12.35;6.40;;;;;;;;;;5044239;28;20083;-75
2022/05/08 11:51:48;;;;;;;8.05;4.03;;;;;;;;;;5046189;28;20048;-74
2022/05/08 11:54:35;;;;;;;10.85;5.05;;;;;;;;;;5043128;28;20033;-75
2022/05/08 11:57:14;;;;;;;9.57;4.57;;;;;;;;;;5045441;28;20021;-74
2022/05/08 11:59:41;;;;;;;9.07;3.63;;;;;;;;;;5045569;28;20056;-74
2022/05/08 12:02:07;;;;;;;10.75;4.15;;;;;;;;;;5048300;28;20032;-74
2022/05/08 12:04:34;;;;;;;6.65;3.92;;;;;;;;;;5047267;28;20040;-74
2022/05/08 12:07:05;;;;;;;15.10;4.20;;;;;;;;;;5025506;28;20507;-74
2022/05/08 12:09:35;;;;;;;7.85;3.65;;;;;;;;;;5045913;28;20467;-74
2022/05/08 12:12:19;;;;;;;7.53;3.88;;;;;;;;;;5043437;28;20029;-73
2022/05/08 12:14:59;;;;;;;5.93;3.60;;;;;;;;;;5046316;28;20033;-74
2022/05/08 12:17:25;;;;;;;11.20;4.20;;;;;;;;;;5045305;28;20605;-75
2022/05/08 12:19:53;;;;;;;9.10;4.10;;;;;;;;;;5042222;28;20052;-74
2022/05/08 12:22:26;;;;;;;9.77;4.00;;;;;;;;;;5034391;28;20044;-75
2022/05/08 12:24:55;;;;;;;15.32;5.72;;;;;;;;;;5040178;28;20502;-75
2022/05/08 12:27:21;;;;;;;9.48;4.80;;;;;;;;;;5036517;28;20132;-74
2022/05/08 12:29:50;;;;;;;9.60;3.92;;;;;;;;;;5039269;28;20068;-74
2022/05/08 12:32:17;;;;;;;9.70;3.58;;;;;;;;;;5039229;28;20021;-74
2022/05/08 12:34:43;;;;;;;10.77;3.88;;;;;;;;;;5038834;28;20360;-74
2022/05/08 12:37:10;;;;;;;9.25;4.13;;;;;;;;;;5033143;28;20025;-75
2022/05/08 12:39:36;;;;;;;91.03;7.95;;;;;;;;;;5041560;28;20033;-74
2022/05/08 12:42:03;;;;;;;9.98;5.15;;;;;;;;;;5038531;28;20467;-78
2022/05/08 12:44:29;;;;;;;9.95;3.90;;;;;;;;;;5036508;28;20029;-74
2022/05/08 12:46:56;;;;;;;7.75;4.00;;;;;;;;;;5038627;28;20360;-73
2022/05/08 12:49:22;;;;;;;12.05;3.95;;;;;;;;;;5039954;28;20064;-76
2022/05/08 12:51:50;;;;;;;9.85;4.00;;;;;;;;;;5043285;28;20578;-74
2022/05/08 12:54:16;;;;;;;9.18;3.95;;;;;;;;;;5044587;28;20175;-73
2022/05/08 12:56:45;;;;;;;10.45;3.67;;;;;;;;;;5043357;28;20029;-73
2022/05/08 13:01:56;;;;;;;9.40;3.53;;;;;;;;;;5035715;28;20044;-76
2022/05/08 13:04:22;;;;;;;8.15;3.33;;;;;;;;;;5043687;28;20491;-74
2022/05/08 13:06:48;;;;;;;9.57;3.95;;;;;;;;;;5038704;28;20566;-74
2022/05/08 13:09:14;;;;;;;6.10;3.85;;;;;;;;;;5042605;28;20048;-74
2022/05/08 13:11:41;;;;;;;6.57;3.55;;;;;;;;;;5036458;28;20474;-75
2022/05/08 13:14:07;;;;;;;5.78;3.13;;;;;;;;;;5040798;28;20025;-75
2022/05/08 13:16:35;;;;;;;8.27;3.35;;;;;;;;;;5041142;28;20028;-74
2022/05/08 13:19:03;;;;;;;6.40;3.50;;;;;;;;;;5048633;28;20029;-74
2022/05/08 13:21:30;;;;;;;5.63;3.35;;;;;;;;;;5045700;28;20492;-74
2022/05/08 13:23:56;;;;;;;6.15;3.20;;;;;;;;;;5046375;28;20112;-74
2022/05/08 13:26:22;;;;;;;5.82;3.60;;;;;;;;;;5049499;28;20170;-75
2022/05/08 13:28:48;;;;;;;6.50;3.85;;;;;;;;;;5037400;28;20625;-75
2022/05/08 13:31:14;;;;;;;7.70;3.22;;;;;;;;;;5042511;28;20025;-74
2022/05/08 13:33:41;;;;;;;7.88;3.58;;;;;;;;;;5048373;28;20059;-74
2022/05/08 13:36:07;;;;;;;6.22;3.20;;;;;;;;;;5045420;28;20025;-75
2022/05/08 13:38:39;;;;;;;6.13;3.30;;;;;;;;;;5037416;28;20029;-74
2022/05/08 13:41:05;;;;;;;4.38;3.10;;;;;;;;;;5041600;28;20475;-74
2022/05/08 13:43:32;;;;;;;7.00;3.45;;;;;;;;;;5049113;28;20025;-74
2022/05/08 13:45:58;;;;;;;6.18;3.22;;;;;;;;;;5040986;28;20037;-75
2022/05/08 13:48:24;;;;;;;10.02;4.10;;;;;;;;;;5036446;28;20531;-74
2022/05/08 13:50:51;;;;;;;7.80;3.20;;;;;;;;;;5038458;28;20033;-74
2022/05/08 13:53:19;;;;;;;4.70;3.17;;;;;;;;;;5036984;28;20049;-74
2022/05/08 13:55:47;;;;;;;9.20;3.70;;;;;;;;;;5036551;28;20014;-73
2022/05/08 13:58:14;;;;;;;6.82;3.55;;;;;;;;;;5044905;28;20029;-74
2022/05/08 14:00:46;;;;;;;5.50;3.50;;;;;;;;;;5039718;28;20429;-75
2022/05/08 14:03:12;;;;;;;8.55;3.50;;;;;;;;;;5036537;28;20018;-74
2022/05/08 14:05:38;;;;;;;7.57;3.55;;;;;;;;;;5034880;28;20068;-74
2022/05/08 14:08:05;;;;;;;6.55;3.30;;;;;;;;;;5034841;28;20030;-74
2022/05/08 14:10:31;;;;;;;10.30;3.42;;;;;;;;;;5034159;28;20675;-74
2022/05/08 14:12:58;;;;;;;5.53;3.30;;;;;;;;;;5037068;28;20530;-74
2022/05/08 14:15:24;;;;;;;12.77;3.83;;;;;;;;;;5037638;28;20108;-75
2022/05/08 14:17:53;;;;;;;14.80;3.50;;;;;;;;;;5033325;28;20025;-74
2022/05/08 14:20:20;;;;;;;7.05;3.55;;;;;;;;;;5033288;28;20557;-74
2022/05/08 14:22:46;;;;;;;7.80;3.80;;;;;;;;;;5039583;28;20024;-74
2022/05/08 14:25:13;;;;;;;8.73;3.72;;;;;;;;;;5048643;28;20028;-75
2022/05/08 14:27:39;;;;;;;4.68;3.22;;;;;;;;;;5046970;28;20025;-75
2022/05/08 14:30:08;;;;;;;4.70;3.35;;;;;;;;;;5042203;28;20078;-75
2022/05/08 14:38:03;;;;;;;8.15;3.67;;;;;;;;;;5047161;28;20044;-75
2022/05/08 14:40:30;;;;;;;7.22;3.80;;;;;;;;;;5044123;28;20025;-74
2022/05/08 14:42:56;;;;;;;12.77;4.18;;;;;;;;;;5037669;28;20017;-75
2022/05/08 14:45:22;;;;;;;6.68;3.75;;;;;;;;;;5046284;28;20482;-75
2022/05/08 14:47:48;;;;;;;6.57;3.78;;;;;;;;;;5045926;28;20025;-75
2022/05/08 14:50:14;;;;;;;10.88;3.83;;;;;;;;;;5043168;28;20026;-75
2022/05/08 14:52:42;;;;;;;10.40;4.57;;;;;;;;;;5034804;28;20027;-74
2022/05/08 14:55:08;;;;;;;6.05;3.50;;;;;;;;;;5041010;28;20033;-74
2022/05/08 14:57:35;;;;;;;6.43;3.38;;;;;;;;;;5050737;28;20029;-75
2022/05/08 15:00:01;;;;;;;9.32;4.45;;;;;;;;;;5036979;28;20383;-74
2022/05/08 15:02:27;;;;;;;5.40;3.47;;;;;;;;;;5043593;28;20053;-75
2022/05/08 15:04:53;;;;;;;5.13;3.47;;;;;;;;;;5045193;28;20036;-75
2022/05/08 15:07:19;;;;;;;12.95;3.85;;;;;;;;;;5047659;28;20045;-75
2022/05/08 15:09:45;;;;;;;12.40;3.88;;;;;;;;;;5036464;28;20474;-76
2022/05/08 15:12:11;;;;;;;6.68;3.30;;;;;;;;;;5038136;28;20064;-77
2022/05/08 15:14:37;;;;;;;6.68;3.47;;;;;;;;;;5041542;28;20025;-78
2022/05/08 15:17:03;;;;;;;5.90;3.53;;;;;;;;;;5033838;28;20065;-75
2022/05/08 15:19:29;;;;;;;5.53;3.30;;;;;;;;;;5045256;28;20060;-76
2022/05/08 15:21:56;;;;;;;5.20;3.25;;;;;;;;;;5051281;28;20025;-79
2022/05/08 15:24:22;;;;;;;5.05;3.53;;;;;;;;;;5043267;28;20167;-79
2022/05/08 15:26:49;;;;;;;7.80;3.25;;;;;;;;;;5042572;28;20490;-77
2022/05/08 15:29:18;;;;;;;5.50;3.20;;;;;;;;;;5050061;28;20046;-80
2022/05/08 15:31:44;;;;;;;9.18;3.65;;;;;;;;;;5048813;28;20057;-78